sensor_id;sensor_type;location;lat;lon;timestamp;pressure;altitude;pressure_sealevel;temperature;humidity
46955;BME280;32708;51.212;6.788;2024-02-15T00:01:42;101283.69;;;15.42;100.00
46955;BME280;32708;51.212;6.788;2024-02-15T00:04:08;101274.31;;;15.56;100.00
46955;BME280;32708;51.212;6.788;2024-02-15T00:06:36;101290.69;;;15.19;100.00
46955;BME280;32708;51.212;6.788;2024-02-15T00:09:03;101293.25;;;15.03;100.00
46955;BME280;32708;51.212;6.788;2024-02-15T00:11:29;101291.03;;;15.18;100.00
46955;BME280;32708;51.212;6.788;2024-02-15T00:13:56;101284.19;;;15.24;100.00
46955;BME280;32708;51.212;6.788;2024-02-15T00:16:22;101280.91;;;15.30;100.00
46955;BME280;32708;51.212;6.788;2024-02-15T00:18:48;101280.00;;;15.38;100.00
46955;BME280;32708;51.212;6.788;2024-02-15T00:21:15;101283.47;;;15.48;100.00
46955;BME280;32708;51.212;6.788;2024-02-15T00:23:42;101279.19;;;15.38;100.00
46955;BME280;32708;51.212;6.788;2024-02-15T00:26:08;101278.00;;;15.27;100.00
46955;BME280;32708;51.212;6.788;2024-02-15T00:28:35;101275.78;;;15.20;100.00
46955;BME280;32708;51.212;6.788;2024-02-15T00:31:01;101287.28;;;15.55;100.00
46955;BME280;32708;51.212;6.788;2024-02-15T00:33:30;101265.91;;;15.40;100.00
46955;BME280;32708;51.212;6.788;2024-02-15T00:35:56;101272.06;;;15.58;100.00
46955;BME280;32708;51.212;6.788;2024-02-15T00:38:22;101272.38;;;15.89;100.00
46955;BME280;32708;51.212;6.788;2024-02-15T00:40:49;101259.69;;;15.64;100.00
46955;BME280;32708;51.212;6.788;2024-02-15T00:43:15;101259.38;;;15.78;100.00
46955;BME280;32708;51.212;6.788;2024-02-15T00:45:42;101266.31;;;15.51;100.00
46955;BME280;32708;51.212;6.788;2024-02-15T00:48:08;101259.97;;;15.83;100.00
46955;BME280;32708;51.212;6.788;2024-02-15T00:50:35;101263.44;;;15.59;100.00
46955;BME280;32708;51.212;6.788;2024-02-15T00:53:02;101258.69;;;15.68;100.00
46955;BME280;32708;51.212;6.788;2024-02-15T00:55:28;101260.00;;;15.50;100.00
46955;BME280;32708;51.212;6.788;2024-02-15T00:57:54;101265.50;;;15.50;100.00
46955;BME280;32708;51.212;6.788;2024-02-15T01:00:20;101269.31;;;15.58;100.00
46955;BME280;32708;51.212;6.788;2024-02-15T01:02:46;101254.03;;;16.06;100.00
46955;BME280;32708;51.212;6.788;2024-02-15T01:05:13;101246.41;;;15.78;100.00
46955;BME280;32708;51.212;6.788;2024-02-15T01:07:44;101243.91;;;15.98;100.00
46955;BME280;32708;51.212;6.788;2024-02-15T01:10:10;101225.22;;;16.15;100.00
46955;BME280;32708;51.212;6.788;2024-02-15T01:12:36;101222.00;;;16.13;100.00
46955;BME280;32708;51.212;6.788;2024-02-15T01:15:02;101231.06;;;15.89;100.00
46955;BME280;32708;51.212;6.788;2024-02-15T01:17:29;101224.31;;;15.87;100.00
46955;BME280;32708;51.212;6.788;2024-02-15T01:19:55;101221.91;;;16.10;100.00
46955;BME280;32708;51.212;6.788;2024-02-15T01:22:22;101222.47;;;16.15;100.00
46955;BME280;32708;51.212;6.788;2024-02-15T01:24:50;101213.50;;;16.06;100.00
46955;BME280;32708;51.212;6.788;2024-02-15T01:27:17;101217.19;;;15.98;100.00
46955;BME280;32708;51.212;6.788;2024-02-15T01:29:43;101233.13;;;15.92;100.00
46955;BME280;32708;51.212;6.788;2024-02-15T01:32:13;101218.47;;;16.01;100.00
46955;BME280;32708;51.212;6.788;2024-02-15T01:34:40;101228.63;;;15.76;100.00
46955;BME280;32708;51.212;6.788;2024-02-15T01:37:06;101228.19;;;15.98;100.00
46955;BME280;32708;51.212;6.788;2024-02-15T01:39:32;101226.25;;;15.86;100.00
46955;BME280;32708;51.212;6.788;2024-02-15T01:41:58;101235.00;;;15.55;100.00
46955;BME280;32708;51.212;6.788;2024-02-15T01:44:25;101236.69;;;15.81;100.00
46955;BME280;32708;51.212;6.788;2024-02-15T01:46:51;101223.03;;;15.84;100.00
46955;BME280;32708;51.212;6.788;2024-02-15T01:49:22;101221.50;;;15.62;100.00
46955;BME280;32708;51.212;6.788;2024-02-15T01:51:53;101214.03;;;15.63;100.00
46955;BME280;32708;51.212;6.788;2024-02-15T01:54:21;101228.56;;;15.51;100.00
46955;BME280;32708;51.212;6.788;2024-02-15T01:56:47;101231.59;;;15.71;100.00
46955;BME280;32708;51.212;6.788;2024-02-15T01:59:15;101218.81;;;15.54;100.00
46955;BME280;32708;51.212;6.788;2024-02-15T02:01:44;101229.63;;;15.59;100.00
46955;BME280;32708;51.212;6.788;2024-02-15T02:04:10;101222.31;;;15.63;100.00
46955;BME280;32708;51.212;6.788;2024-02-15T02:06:39;101217.63;;;15.76;100.00
46955;BME280;32708;51.212;6.788;2024-02-15T02:09:13;101219.69;;;15.66;100.00
46955;BME280;32708;51.212;6.788;2024-02-15T02:11:46;101214.22;;;15.46;100.00
46955;BME280;32708;51.212;6.788;2024-02-15T02:14:14;101234.34;;;15.04;100.00
46955;BME280;32708;51.212;6.788;2024-02-15T02:16:40;101246.31;;;15.41;100.00
46955;BME280;32708;51.212;6.788;2024-02-15T02:19:07;101230.25;;;15.64;100.00
46955;BME280;32708;51.212;6.788;2024-02-15T02:21:36;101232.41;;;15.71;100.00
46955;BME280;32708;51.212;6.788;2024-02-15T02:24:13;101219.97;;;15.53;100.00
46955;BME280;32708;51.212;6.788;2024-02-15T02:26:39;101215.66;;;15.64;100.00
46955;BME280;32708;51.212;6.788;2024-02-15T02:29:06;101222.47;;;15.46;100.00
46955;BME280;32708;51.212;6.788;2024-02-15T02:31:36;101213.81;;;15.23;100.00
46955;BME280;32708;51.212;6.788;2024-02-15T02:34:02;101218.16;;;15.24;100.00
46955;BME280;32708;51.212;6.788;2024-02-15T02:36:29;101219.94;;;15.40;100.00
46955;BME280;32708;51.212;6.788;2024-02-15T02:38:56;101204.34;;;15.45;100.00
46955;BME280;32708;51.212;6.788;2024-02-15T02:41:29;101198.97;;;15.36;100.00
46955;BME280;32708;51.212;6.788;2024-02-15T02:43:58;101199.56;;;15.21;100.00
46955;BME280;32708;51.212;6.788;2024-02-15T02:46:24;101198.91;;;15.24;100.00
46955;BME280;32708;51.212;6.788;2024-02-15T02:48:51;101207.16;;;15.24;100.00
46955;BME280;32708;51.212;6.788;2024-02-15T02:51:18;101197.47;;;15.38;100.00
46955;BME280;32708;51.212;6.788;2024-02-15T02:53:44;101199.31;;;15.47;100.00
46955;BME280;32708;51.212;6.788;2024-02-15T02:56:10;101193.91;;;15.38;100.00
46955;BME280;32708;51.212;6.788;2024-02-15T02:58:36;101194.81;;;15.30;100.00
46955;BME280;32708;51.212;6.788;2024-02-15T03:01:02;101182.94;;;15.50;100.00
46955;BME280;32708;51.212;6.788;2024-02-15T03:03:29;101177.88;;;15.52;100.00
46955;BME280;32708;51.212;6.788;2024-02-15T03:05:55;101190.34;;;15.50;100.00
46955;BME280;32708;51.212;6.788;2024-02-15T03:08:21;101169.19;;;15.62;100.00
46955;BME280;32708;51.212;6.788;2024-02-15T03:10:48;101179.88;;;15.19;100.00
46955;BME280;32708;51.212;6.788;2024-02-15T03:13:14;101180.59;;;15.40;100.00
46955;BME280;32708;51.212;6.788;2024-02-15T03:15:40;101180.34;;;15.33;100.00
46955;BME280;32708;51.212;6.788;2024-02-15T03:18:07;101176.03;;;15.44;100.00
46955;BME280;32708;51.212;6.788;2024-02-15T03:20:37;101170.19;;;15.46;100.00
46955;BME280;32708;51.212;6.788;2024-02-15T03:23:03;101160.22;;;15.53;100.00
46955;BME280;32708;51.212;6.788;2024-02-15T03:25:30;101154.34;;;15.42;100.00
46955;BME280;32708;51.212;6.788;2024-02-15T03:27:58;101182.09;;;15.04;100.00
46955;BME280;32708;51.212;6.788;2024-02-15T03:30:26;101174.22;;;14.82;100.00
46955;BME280;32708;51.212;6.788;2024-02-15T03:32:55;101171.56;;;15.06;100.00
46955;BME280;32708;51.212;6.788;2024-02-15T03:35:24;101182.28;;;14.87;100.00
46955;BME280;32708;51.212;6.788;2024-02-15T03:37:52;101175.84;;;14.83;100.00
46955;BME280;32708;51.212;6.788;2024-02-15T03:40:20;101174.28;;;14.94;100.00
46955;BME280;32708;51.212;6.788;2024-02-15T03:42:47;101166.66;;;15.12;100.00
46955;BME280;32708;51.212;6.788;2024-02-15T03:45:13;101168.84;;;14.85;100.00
46955;BME280;32708;51.212;6.788;2024-02-15T03:47:39;101182.56;;;14.73;100.00
46955;BME280;32708;51.212;6.788;2024-02-15T03:50:08;101169.81;;;15.23;100.00
46955;BME280;32708;51.212;6.788;2024-02-15T03:52:37;101165.41;;;15.09;100.00
46955;BME280;32708;51.212;6.788;2024-02-15T03:55:05;101159.56;;;15.11;100.00
46955;BME280;32708;51.212;6.788;2024-02-15T03:57:33;101161.00;;;14.96;100.00
46955;BME280;32708;51.212;6.788;2024-02-15T04:00:00;101161.31;;;15.16;100.00
46955;BME280;32708;51.212;6.788;2024-02-15T04:02:27;101163.28;;;14.94;100.00
46955;BME280;32708;51.212;6.788;2024-02-15T04:04:54;101176.34;;;14.97;100.00
46955;BME280;32708;51.212;6.788;2024-02-15T04:07:23;101163.09;;;15.11;100.00
46955;BME280;32708;51.212;6.788;2024-02-15T04:09:53;101156.72;;;15.20;100.00
46955;BME280;32708;51.212;6.788;2024-02-15T04:12:20;101162.91;;;15.17;100.00
46955;BME280;32708;51.212;6.788;2024-02-15T04:14:46;101164.00;;;15.03;100.00
46955;BME280;32708;51.212;6.788;2024-02-15T04:17:14;101161.88;;;15.21;100.00
46955;BME280;32708;51.212;6.788;2024-02-15T04:19:46;101160.47;;;14.82;100.00
46955;BME280;32708;51.212;6.788;2024-02-15T04:22:13;101158.69;;;14.86;100.00
46955;BME280;32708;51.212;6.788;2024-02-15T04:24:45;101164.22;;;14.98;100.00
46955;BME280;32708;51.212;6.788;2024-02-15T04:27:11;101160.66;;;14.98;100.00
46955;BME280;32708;51.212;6.788;2024-02-15T04:29:41;101155.50;;;14.96;100.00
46955;BME280;32708;51.212;6.788;2024-02-15T04:32:11;101153.25;;;15.10;100.00
46955;BME280;32708;51.212;6.788;2024-02-15T04:34:38;101153.84;;;15.16;100.00
46955;BME280;32708;51.212;6.788;2024-02-15T04:37:04;101146.16;;;15.09;100.00
46955;BME280;32708;51.212;6.788;2024-02-15T04:39:35;101157.25;;;15.13;100.00
46955;BME280;32708;51.212;6.788;2024-02-15T04:42:05;101158.41;;;14.79;100.00
46955;BME280;32708;51.212;6.788;2024-02-15T04:44:33;101169.78;;;14.90;100.00
46955;BME280;32708;51.212;6.788;2024-02-15T04:47:02;101168.81;;;14.52;100.00
46955;BME280;32708;51.212;6.788;2024-02-15T04:49:32;101173.81;;;14.92;100.00
46955;BME280;32708;51.212;6.788;2024-02-15T04:51:59;101155.75;;;15.03;100.00
46955;BME280;32708;51.212;6.788;2024-02-15T04:54:28;101153.38;;;15.14;100.00
46955;BME280;32708;51.212;6.788;2024-02-15T04:56:55;101142.47;;;15.05;100.00
46955;BME280;32708;51.212;6.788;2024-02-15T04:59:23;101140.19;;;15.07;100.00
46955;BME280;32708;51.212;6.788;2024-02-15T05:01:53;101136.91;;;15.26;100.00
46955;BME280;32708;51.212;6.788;2024-02-15T05:04:19;101135.59;;;15.11;100.00
46955;BME280;32708;51.212;6.788;2024-02-15T05:06:45;101127.78;;;15.01;100.00
46955;BME280;32708;51.212;6.788;2024-02-15T05:09:11;101127.78;;;15.01;100.00
46955;BME280;32708;51.212;6.788;2024-02-15T05:11:39;101128.22;;;14.91;100.00
46955;BME280;32708;51.212;6.788;2024-02-15T05:14:13;101128.47;;;14.98;100.00
46955;BME280;32708;51.212;6.788;2024-02-15T05:16:46;101136.47;;;14.70;100.00
46955;BME280;32708;51.212;6.788;2024-02-15T05:19:17;101143.59;;;14.71;100.00
46955;BME280;32708;51.212;6.788;2024-02-15T05:21:47;101144.25;;;14.89;100.00
46955;BME280;32708;51.212;6.788;2024-02-15T05:24:17;101147.03;;;14.68;100.00
46955;BME280;32708;51.212;6.788;2024-02-15T05:26:46;101135.25;;;15.13;100.00
46955;BME280;32708;51.212;6.788;2024-02-15T05:29:16;101134.75;;;14.99;100.00
46955;BME280;32708;51.212;6.788;2024-02-15T05:31:42;101135.56;;;14.99;100.00
46955;BME280;32708;51.212;6.788;2024-02-15T05:34:11;101127.34;;;15.11;100.00
46955;BME280;32708;51.212;6.788;2024-02-15T05:36:38;101135.16;;;15.09;100.00
46955;BME280;32708;51.212;6.788;2024-02-15T05:39:05;101136.09;;;14.59;100.00
46955;BME280;32708;51.212;6.788;2024-02-15T05:41:31;101145.75;;;14.99;100.00
46955;BME280;32708;51.212;6.788;2024-02-15T05:44:01;101146.47;;;14.75;100.00
46955;BME280;32708;51.212;6.788;2024-02-15T05:46:27;101140.50;;;14.94;100.00
46955;BME280;32708;51.212;6.788;2024-02-15T05:48:54;101122.78;;;15.16;100.00
46955;BME280;32708;51.212;6.788;2024-02-15T05:51:21;101126.84;;;14.97;100.00
46955;BME280;32708;51.212;6.788;2024-02-15T05:53:47;101117.69;;;14.93;100.00
46955;BME280;32708;51.212;6.788;2024-02-15T05:56:15;101117.69;;;14.93;100.00
46955;BME280;32708;51.212;6.788;2024-02-15T05:58:42;101116.09;;;15.04;100.00
46955;BME280;32708;51.212;6.788;2024-02-15T06:01:11;101119.19;;;15.03;100.00
46955;BME280;32708;51.212;6.788;2024-02-15T06:03:40;101122.69;;;14.79;100.00
46955;BME280;32708;51.212;6.788;2024-02-15T06:06:10;101120.69;;;15.00;100.00
46955;BME280;32708;51.212;6.788;2024-02-15T06:08:37;101133.53;;;15.08;100.00
46955;BME280;32708;51.212;6.788;2024-02-15T06:11:06;101145.34;;;14.76;100.00
46955;BME280;32708;51.212;6.788;2024-02-15T06:13:33;101149.91;;;14.72;100.00
46955;BME280;32708;51.212;6.788;2024-02-15T06:16:00;101135.91;;;14.65;100.00
46955;BME280;32708;51.212;6.788;2024-02-15T06:18:30;101128.81;;;14.97;100.00
46955;BME280;32708;51.212;6.788;2024-02-15T06:20:59;101131.66;;;14.88;100.00
46955;BME280;32708;51.212;6.788;2024-02-15T06:23:27;101131.66;;;14.88;100.00
46955;BME280;32708;51.212;6.788;2024-02-15T06:25:56;101134.47;;;15.12;100.00
46955;BME280;32708;51.212;6.788;2024-02-15T06:28:24;101132.06;;;14.78;100.00
46955;BME280;32708;51.212;6.788;2024-02-15T06:31:10;101123.81;;;14.78;100.00
46955;BME280;32708;51.212;6.788;2024-02-15T06:33:56;101140.03;;;14.71;100.00
46955;BME280;32708;51.212;6.788;2024-02-15T06:36:50;101123.59;;;14.83;100.00
46955;BME280;32708;51.212;6.788;2024-02-15T06:39:35;101119.81;;;15.21;100.00
46955;BME280;32708;51.212;6.788;2024-02-15T06:42:14;101118.50;;;15.06;100.00
46955;BME280;32708;51.212;6.788;2024-02-15T06:44:48;101121.25;;;14.94;100.00
46955;BME280;32708;51.212;6.788;2024-02-15T06:47:15;101118.75;;;15.13;100.00
46955;BME280;32708;51.212;6.788;2024-02-15T06:49:45;101114.13;;;14.93;100.00
46955;BME280;32708;51.212;6.788;2024-02-15T06:52:12;101133.34;;;14.80;100.00
46955;BME280;32708;51.212;6.788;2024-02-15T06:54:39;101144.06;;;14.73;100.00
46955;BME280;32708;51.212;6.788;2024-02-15T06:57:06;101137.22;;;14.79;100.00
46955;BME280;32708;51.212;6.788;2024-02-15T06:59:33;101125.03;;;15.01;100.00
46955;BME280;32708;51.212;6.788;2024-02-15T07:02:02;101119.31;;;15.06;100.00
46955;BME280;32708;51.212;6.788;2024-02-15T07:04:30;101124.63;;;15.24;100.00
46955;BME280;32708;51.212;6.788;2024-02-15T07:06:58;101115.94;;;15.34;100.00
46955;BME280;32708;51.212;6.788;2024-02-15T07:09:25;101110.84;;;15.11;100.00
46955;BME280;32708;51.212;6.788;2024-02-15T07:11:52;101122.25;;;14.89;100.00
46955;BME280;32708;51.212;6.788;2024-02-15T07:14:19;101115.06;;;14.97;100.00
46955;BME280;32708;51.212;6.788;2024-02-15T07:16:46;101111.53;;;15.08;100.00
46955;BME280;32708;51.212;6.788;2024-02-15T07:19:14;101103.66;;;15.31;100.00
46955;BME280;32708;51.212;6.788;2024-02-15T07:21:42;101105.59;;;15.19;100.00
46955;BME280;32708;51.212;6.788;2024-02-15T07:24:09;101114.75;;;15.10;100.00
46955;BME280;32708;51.212;6.788;2024-02-15T07:26:36;101110.91;;;15.36;100.00
46955;BME280;32708;51.212;6.788;2024-02-15T07:29:03;101121.59;;;15.04;100.00
46955;BME280;32708;51.212;6.788;2024-02-15T07:31:34;101131.03;;;15.16;100.00
46955;BME280;32708;51.212;6.788;2024-02-15T07:34:00;101120.50;;;15.18;100.00
46955;BME280;32708;51.212;6.788;2024-02-15T07:36:26;101134.19;;;14.93;100.00
46955;BME280;32708;51.212;6.788;2024-02-15T07:38:54;101127.69;;;15.10;100.00
46955;BME280;32708;51.212;6.788;2024-02-15T07:41:24;101132.09;;;14.90;100.00
46955;BME280;32708;51.212;6.788;2024-02-15T07:43:51;101147.44;;;14.79;100.00
46955;BME280;32708;51.212;6.788;2024-02-15T07:46:18;101138.81;;;15.01;100.00
46955;BME280;32708;51.212;6.788;2024-02-15T07:48:45;101148.81;;;14.64;100.00
46955;BME280;32708;51.212;6.788;2024-02-15T07:51:14;101151.91;;;14.83;100.00
46955;BME280;32708;51.212;6.788;2024-02-15T07:53:41;101165.91;;;14.49;100.00
46955;BME280;32708;51.212;6.788;2024-02-15T07:56:09;101173.00;;;13.99;100.00
46955;BME280;32708;51.212;6.788;2024-02-15T07:58:54;101185.56;;;14.09;100.00
46955;BME280;32708;51.212;6.788;2024-02-15T08:01:20;101194.56;;;14.39;100.00
46955;BME280;32708;51.212;6.788;2024-02-15T08:03:47;101181.75;;;14.22;100.00
46955;BME280;32708;51.212;6.788;2024-02-15T08:06:16;101177.25;;;14.47;100.00
46955;BME280;32708;51.212;6.788;2024-02-15T08:08:45;101168.50;;;14.24;100.00
46955;BME280;32708;51.212;6.788;2024-02-15T08:11:13;101171.44;;;14.40;100.00
46955;BME280;32708;51.212;6.788;2024-02-15T08:13:46;101169.84;;;14.39;100.00
46955;BME280;32708;51.212;6.788;2024-02-15T08:16:17;101160.97;;;14.63;100.00
46955;BME280;32708;51.212;6.788;2024-02-15T08:18:44;101150.50;;;14.77;100.00
46955;BME280;32708;51.212;6.788;2024-02-15T08:21:12;101146.03;;;14.73;100.00
46955;BME280;32708;51.212;6.788;2024-02-15T08:23:39;101147.22;;;14.63;100.00
46955;BME280;32708;51.212;6.788;2024-02-15T08:26:05;101143.63;;;14.42;100.00
46955;BME280;32708;51.212;6.788;2024-02-15T08:28:31;101144.53;;;14.75;100.00
46955;BME280;32708;51.212;6.788;2024-02-15T08:30:58;101152.75;;;14.33;100.00
46955;BME280;32708;51.212;6.788;2024-02-15T08:33:25;101148.28;;;14.29;100.00
46955;BME280;32708;51.212;6.788;2024-02-15T08:35:54;101139.22;;;14.70;100.00
46955;BME280;32708;51.212;6.788;2024-02-15T08:38:24;101141.03;;;14.45;100.00
46955;BME280;32708;51.212;6.788;2024-02-15T08:40:51;101136.72;;;14.36;100.00
46955;BME280;32708;51.212;6.788;2024-02-15T08:43:17;101126.63;;;14.27;100.00
46955;BME280;32708;51.212;6.788;2024-02-15T08:45:44;101130.50;;;14.89;100.00
46955;BME280;32708;51.212;6.788;2024-02-15T08:48:11;101138.84;;;14.59;100.00
46955;BME280;32708;51.212;6.788;2024-02-15T08:50:39;101125.63;;;14.74;100.00
46955;BME280;32708;51.212;6.788;2024-02-15T08:53:05;101134.09;;;14.69;100.00
46955;BME280;32708;51.212;6.788;2024-02-15T08:55:32;101126.31;;;14.50;100.00
46955;BME280;32708;51.212;6.788;2024-02-15T08:58:02;101126.28;;;14.71;100.00
46955;BME280;32708;51.212;6.788;2024-02-15T09:00:28;101109.09;;;14.95;100.00
46955;BME280;32708;51.212;6.788;2024-02-15T09:02:55;101103.09;;;14.80;100.00
46955;BME280;32708;51.212;6.788;2024-02-15T09:05:23;101105.00;;;15.01;100.00
46955;BME280;32708;51.212;6.788;2024-02-15T09:07:50;101107.00;;;14.79;100.00
46955;BME280;32708;51.212;6.788;2024-02-15T09:10:18;101109.06;;;14.82;100.00
46955;BME280;32708;51.212;6.788;2024-02-15T09:12:45;101129.72;;;14.68;100.00
46955;BME280;32708;51.212;6.788;2024-02-15T09:15:16;101119.19;;;14.70;100.00
46955;BME280;32708;51.212;6.788;2024-02-15T09:17:43;101111.75;;;15.03;100.00
46955;BME280;32708;51.212;6.788;2024-02-15T09:20:13;101099.53;;;15.25;100.00
46955;BME280;32708;51.212;6.788;2024-02-15T09:22:56;101096.81;;;14.92;100.00
46955;BME280;32708;51.212;6.788;2024-02-15T09:25:23;101097.53;;;15.01;100.00
46955;BME280;32708;51.212;6.788;2024-02-15T09:27:51;101089.25;;;14.89;100.00
46955;BME280;32708;51.212;6.788;2024-02-15T09:30:17;101081.63;;;15.19;100.00
46955;BME280;32708;51.212;6.788;2024-02-15T09:32:45;101088.28;;;15.18;100.00
46955;BME280;32708;51.212;6.788;2024-02-15T09:35:13;101077.91;;;15.36;100.00
46955;BME280;32708;51.212;6.788;2024-02-15T09:37:47;101070.53;;;15.28;100.00
46955;BME280;32708;51.212;6.788;2024-02-15T09:40:19;101070.78;;;15.59;100.00
46955;BME280;32708;51.212;6.788;2024-02-15T09:42:46;101069.38;;;15.17;100.00
46955;BME280;32708;51.212;6.788;2024-02-15T09:45:14;101065.88;;;15.65;100.00
46955;BME280;32708;51.212;6.788;2024-02-15T09:47:42;101056.13;;;15.67;100.00
46955;BME280;32708;51.212;6.788;2024-02-15T09:50:14;101065.97;;;15.44;100.00
46955;BME280;32708;51.212;6.788;2024-02-15T09:52:49;101061.84;;;15.38;100.00
46955;BME280;32708;51.212;6.788;2024-02-15T09:55:17;101067.53;;;15.21;100.00
46955;BME280;32708;51.212;6.788;2024-02-15T09:57:45;101053.78;;;15.08;100.00
46955;BME280;32708;51.212;6.788;2024-02-15T10:00:13;101067.34;;;15.62;100.00
46955;BME280;32708;51.212;6.788;2024-02-15T10:02:46;101055.19;;;15.76;100.00
46955;BME280;32708;51.212;6.788;2024-02-15T10:05:13;101049.19;;;15.98;100.00
46955;BME280;32708;51.212;6.788;2024-02-15T10:07:41;101045.47;;;16.18;100.00
46955;BME280;32708;51.212;6.788;2024-02-15T10:10:22;101051.13;;;16.10;100.00
46955;BME280;32708;51.212;6.788;2024-02-15T10:12:57;101071.13;;;15.46;100.00
46955;BME280;32708;51.212;6.788;2024-02-15T10:15:38;101059.78;;;15.72;100.00
46955;BME280;32708;51.212;6.788;2024-02-15T10:18:09;101061.84;;;15.50;100.00
46955;BME280;32708;51.212;6.788;2024-02-15T10:20:38;101058.88;;;15.67;100.00
46955;BME280;32708;51.212;6.788;2024-02-15T10:23:13;101057.81;;;15.84;100.00
46955;BME280;32708;51.212;6.788;2024-02-15T10:25:44;101045.28;;;15.99;100.00
46955;BME280;32708;51.212;6.788;2024-02-15T10:28:12;101038.16;;;15.98;100.00
46955;BME280;32708;51.212;6.788;2024-02-15T10:30:44;101054.50;;;15.79;100.00
46955;BME280;32708;51.212;6.788;2024-02-15T10:33:27;101042.13;;;16.13;100.00
46955;BME280;32708;51.212;6.788;2024-02-15T10:36:07;101040.50;;;16.24;100.00
46955;BME280;32708;51.212;6.788;2024-02-15T10:38:34;101026.91;;;16.03;100.00
46955;BME280;32708;51.212;6.788;2024-02-15T10:41:07;101032.78;;;16.02;100.00
46955;BME280;32708;51.212;6.788;2024-02-15T10:43:39;101023.56;;;16.10;100.00
46955;BME280;32708;51.212;6.788;2024-02-15T10:46:05;101020.47;;;16.11;100.00
46955;BME280;32708;51.212;6.788;2024-02-15T10:48:36;101026.94;;;15.91;100.00
46955;BME280;32708;51.212;6.788;2024-02-15T10:51:10;101020.31;;;16.20;100.00
46955;BME280;32708;51.212;6.788;2024-02-15T10:54:02;101016.56;;;16.40;100.00
46955;BME280;32708;51.212;6.788;2024-02-15T10:56:43;101010.41;;;16.31;100.00
46955;BME280;32708;51.212;6.788;2024-02-15T10:59:19;101010.00;;;16.45;100.00
46955;BME280;32708;51.212;6.788;2024-02-15T11:01:50;100994.41;;;16.37;100.00
46955;BME280;32708;51.212;6.788;2024-02-15T11:04:22;100994.19;;;16.58;100.00
46955;BME280;32708;51.212;6.788;2024-02-15T11:06:50;100989.72;;;16.37;100.00
46955;BME280;32708;51.212;6.788;2024-02-15T11:09:17;100971.78;;;16.59;100.00
46955;BME280;32708;51.212;6.788;2024-02-15T11:11:46;100978.25;;;16.79;100.00
46955;BME280;32708;51.212;6.788;2024-02-15T11:14:27;100975.78;;;16.62;100.00
46955;BME280;32708;51.212;6.788;2024-02-15T11:16:58;100977.94;;;16.68;100.00
46955;BME280;32708;51.212;6.788;2024-02-15T11:24:45;100957.16;;;16.87;100.00
46955;BME280;32708;51.212;6.788;2024-02-15T11:27:24;100969.72;;;17.35;100.00
46955;BME280;32708;51.212;6.788;2024-02-15T11:29:59;100961.25;;;17.09;100.00
46955;BME280;32708;51.212;6.788;2024-02-15T11:32:50;100962.56;;;16.99;100.00
46955;BME280;32708;51.212;6.788;2024-02-15T11:35:25;100962.59;;;17.34;100.00
46955;BME280;32708;51.212;6.788;2024-02-15T11:37:55;100955.59;;;17.21;100.00
46955;BME280;32708;51.212;6.788;2024-02-15T11:40:25;100943.22;;;17.66;100.00
46955;BME280;32708;51.212;6.788;2024-02-15T11:42:58;100940.47;;;17.50;100.00
46955;BME280;32708;51.212;6.788;2024-02-15T11:45:27;100925.69;;;17.58;100.00
46955;BME280;32708;51.212;6.788;2024-02-15T11:47:59;100920.19;;;18.16;100.00
46955;BME280;32708;51.212;6.788;2024-02-15T11:50:28;100921.63;;;17.52;100.00
46955;BME280;32708;51.212;6.788;2024-02-15T11:53:07;100923.22;;;17.53;100.00
46955;BME280;32708;51.212;6.788;2024-02-15T11:55:39;100929.41;;;17.66;100.00
46955;BME280;32708;51.212;6.788;2024-02-15T11:58:08;100910.09;;;18.04;100.00
46955;BME280;32708;51.212;6.788;2024-02-15T12:00:36;100900.47;;;17.59;100.00
46955;BME280;32708;51.212;6.788;2024-02-15T12:03:23;100921.13;;;17.85;100.00
46955;BME280;32708;51.212;6.788;2024-02-15T12:06:08;100906.78;;;18.18;100.00
46955;BME280;32708;51.212;6.788;2024-02-15T12:08:54;100897.34;;;18.19;100.00
46955;BME280;32708;51.212;6.788;2024-02-15T12:11:40;100893.63;;;18.11;100.00
46955;BME280;32708;51.212;6.788;2024-02-15T12:14:25;100896.63;;;18.03;100.00
46955;BME280;32708;51.212;6.788;2024-02-15T12:17:14;100880.72;;;17.77;100.00
46955;BME280;32708;51.212;6.788;2024-02-15T12:20:04;100900.38;;;17.72;100.00
46955;BME280;32708;51.212;6.788;2024-02-15T12:22:45;100891.56;;;18.28;100.00
46955;BME280;32708;51.212;6.788;2024-02-15T12:25:17;100873.75;;;18.25;100.00
46955;BME280;32708;51.212;6.788;2024-02-15T12:27:54;100876.81;;;18.43;100.00
46955;BME280;32708;51.212;6.788;2024-02-15T12:30:20;100870.56;;;18.00;100.00
46955;BME280;32708;51.212;6.788;2024-02-15T12:32:49;100864.66;;;18.48;100.00
46955;BME280;32708;51.212;6.788;2024-02-15T12:35:21;100866.13;;;18.41;100.00
46955;BME280;32708;51.212;6.788;2024-02-15T12:38:04;100858.66;;;18.65;100.00
46955;BME280;32708;51.212;6.788;2024-02-15T12:40:36;100852.66;;;18.63;100.00
46955;BME280;32708;51.212;6.788;2024-02-15T12:43:05;100852.41;;;18.22;100.00
46955;BME280;32708;51.212;6.788;2024-02-15T12:45:36;100845.38;;;18.74;100.00
46955;BME280;32708;51.212;6.788;2024-02-15T12:48:08;100848.81;;;18.45;100.00
46955;BME280;32708;51.212;6.788;2024-02-15T12:50:35;100843.94;;;18.61;100.00
46955;BME280;32708;51.212;6.788;2024-02-15T12:53:02;100835.03;;;18.71;100.00
46955;BME280;32708;51.212;6.788;2024-02-15T12:55:36;100832.28;;;18.71;100.00
46955;BME280;32708;51.212;6.788;2024-02-15T12:58:06;100836.06;;;18.36;100.00